Time;durP1;ratioP1;P1;durP2;ratioP2;P2;SDS_P1;SDS_P2;PMS_P1;PMS_P2;Temp;Humidity;BMP_temperature;BMP_pressure;BME280_temperature;BME280_humidity;BME280_pressure;Samples;Min_cycle;Max_cycle;Signal;HPM_P1;HPM_P2
2022/10/07 00:02:09;;;;;;;;;13.00;12.00;;;;;15.19;76.31;101126.53;4622936;28;3508576;-72
2022/10/07 00:04:36;;;;;;;;;12.00;11.00;;;;;15.18;76.66;101119.53;4645387;28;3508639;-72
2022/10/07 00:07:03;;;;;;;;;13.33;12.00;;;;;15.17;76.28;101116.84;4645443;28;3517977;-70
2022/10/07 00:09:30;;;;;;;;;11.00;11.00;;;;;15.08;76.05;101093.84;4645229;28;2795219;-71
2022/10/07 00:11:58;;;;;;;;;11.83;11.83;;;;;15.16;75.65;101113.34;4654550;28;2800291;-72
2022/10/07 00:14:25;;;;;;;;;12.00;12.00;;;;;15.14;75.88;101115.06;4640869;28;2805495;-71
2022/10/07 00:16:53;;;;;;;;;12.00;12.00;;;;;15.01;75.88;101089.34;4653392;28;2807519;-68
2022/10/07 00:19:19;;;;;;;;;12.67;11.33;;;;;14.99;76.67;101091.06;4630877;28;2791019;-68
2022/10/07 00:21:46;;;;;;;;;13.33;12.00;;;;;14.94;76.62;101097.94;4644803;28;2792433;-68
2022/10/07 00:24:14;;;;;;;;;9.00;9.00;;;;;14.94;76.85;101098.88;4633876;28;2752726;-68
2022/10/07 00:26:43;;;;;;;;;13.33;11.67;;;;;14.85;77.36;101094.28;4655091;28;2794068;-68
2022/10/07 00:29:09;;;;;;;;;13.00;12.33;;;;;14.91;77.29;101097.03;4638411;28;2799212;-68
2022/10/07 00:31:36;;;;;;;;;13.33;11.33;;;;;14.93;77.32;101091.81;4638877;28;2791933;-68
2022/10/07 00:34:03;;;;;;;;;12.33;11.67;;;;;14.99;77.29;101099.81;4632099;28;3513807;-71
2022/10/07 00:36:32;;;;;;;;;12.00;11.00;;;;;15.00;76.90;101099.00;4638528;28;2807555;-71
2022/10/07 00:39:03;;;;;;;;;14.33;13.00;;;;;14.99;77.07;101096.31;4611431;28;2787903;-72
2022/10/07 00:41:37;;;;;;;;;12.00;11.50;;;;;14.99;77.33;101089.31;4639475;28;2798191;-72
2022/10/07 00:44:31;;;;;;;;;12.00;12.00;;;;;15.00;76.81;101092.81;4616603;28;2803774;-71
2022/10/07 00:47:03;;;;;;;;;10.67;10.67;;;;;14.97;76.63;101087.50;4611310;28;2786854;-71
2022/10/07 00:49:39;;;;;;;;;12.67;11.67;;;;;14.82;76.69;101053.88;4633454;28;3523178;-71
2022/10/07 00:52:06;;;;;;;;;13.00;11.00;;;;;14.91;77.06;101081.25;4635759;28;3515884;-71
2022/10/07 00:54:32;;;;;;;;;13.00;12.00;;;;;14.90;77.22;101083.84;4637110;28;3529421;-71
2022/10/07 00:56:59;;;;;;;;;11.67;11.00;;;;;14.73;76.90;101043.16;4620757;28;2800426;-72
2022/10/07 00:59:27;;;;;;;;;10.40;9.80;;;;;14.77;76.83;101056.41;4659957;28;2786731;-70
2022/10/07 01:01:53;;;;;;;;;10.00;10.00;;;;;14.91;76.67;101065.47;4625817;28;2782648;-68
2022/10/07 01:04:19;;;;;;;;;11.50;11.50;;;;;14.77;76.96;101040.63;4641206;28;2807589;-68
2022/10/07 01:06:47;;;;;;;;;13.83;11.83;;;;;14.85;76.97;101062.72;4642625;28;2779776;-68
2022/10/07 01:09:14;;;;;;;;;13.20;12.60;;;;;14.88;77.32;101062.78;4625596;28;3517927;-68
2022/10/07 01:11:54;;;;;;;;;12.00;11.00;;;;;14.92;77.22;101068.97;4641777;28;2797114;-68
2022/10/07 01:14:57;;;;;;;;;10.50;10.50;;;;;14.90;77.08;101062.78;4643395;28;2790282;-67
2022/10/07 01:17:23;;;;;;;;;12.00;11.00;;;;;14.88;77.16;101052.25;4614730;28;2788209;-68
2022/10/07 01:20:20;;;;;;;;;11.00;9.40;;;;;14.78;77.93;101046.75;4657794;28;2763793;-67
2022/10/07 01:23:07;;;;;;;;;12.00;11.33;;;;;14.76;77.76;101054.63;4614141;28;2789876;-71
2022/10/07 01:26:10;;;;;;;;;9.80;9.20;;;;;14.76;77.86;101048.47;4658117;28;2773150;-68
2022/10/07 01:28:57;;;;;;;;;12.50;11.00;;;;;14.76;78.01;101044.09;4635779;28;2812813;-67
2022/10/07 01:31:36;;;;;;;;;14.00;12.00;;;;;14.66;77.56;101036.88;4636742;28;3531503;-68
2022/10/07 01:34:06;;;;;;;;;9.33;8.33;;;;;14.72;77.94;101044.88;4637148;28;2755492;-68
2022/10/07 01:36:35;;;;;;;;;16.00;13.00;;;;;14.67;78.17;101044.81;4633905;28;3536727;-71
2022/10/07 01:39:10;;;;;;;;;12.67;10.33;;;;;14.63;77.79;101024.56;4612629;28;3521092;-71
2022/10/07 01:41:38;;;;;;;;;10.20;10.20;;;;;14.66;77.93;101022.00;4657472;28;2790861;-71
2022/10/07 01:44:09;;;;;;;;;12.50;12.00;;;;;14.49;77.78;101002.31;4633655;28;2807680;-71
2022/10/07 01:46:36;;;;;;;;;11.00;11.00;;;;;14.48;77.80;101001.44;4635612;28;3510639;-68
2022/10/07 01:49:04;;;;;;;;;12.00;11.00;;;;;14.46;77.96;101008.41;4633007;28;2786753;-72
2022/10/07 01:51:36;;;;;;;;;12.67;11.00;;;;;14.53;78.05;101017.31;4636528;28;3513204;-71
2022/10/07 01:54:26;;;;;;;;;13.00;12.00;;;;;14.44;77.82;100999.59;4635305;28;3504446;-72
2022/10/07 01:57:12;;;;;;;;;11.00;10.00;;;;;14.55;78.03;101017.34;4656559;28;2787751;-72
2022/10/07 01:59:51;;;;;;;;;12.50;12.00;;;;;14.45;77.72;100996.09;4618609;28;2791949;-71
2022/10/07 02:02:42;;;;;;;;;10.40;10.00;;;;;14.49;78.35;101008.47;4633426;28;2776283;-71
2022/10/07 02:05:26;;;;;;;;;11.00;10.00;;;;;14.42;78.84;101001.28;4613551;28;2792031;-72
2022/10/07 02:08:38;;;;;;;;;11.00;10.33;;;;;14.44;79.00;100998.69;4636033;28;2789875;-71
2022/10/07 02:11:12;;;;;;;;;11.00;11.00;;;;;14.48;78.72;100995.28;4636275;28;2800386;-71
2022/10/07 02:14:00;;;;;;;;;11.00;10.00;;;;;14.42;78.02;100990.75;4634823;28;3513828;-72
2022/10/07 02:16:38;;;;;;;;;12.33;10.33;;;;;14.33;77.98;100982.72;4636009;28;2788125;-71
2022/10/07 02:19:14;;;;;;;;;12.00;11.80;;;;;14.23;77.56;100965.84;4656696;28;2789862;-72
2022/10/07 02:21:44;;;;;;;;;10.33;9.00;;;;;14.27;77.47;100977.31;4612937;28;2763811;-67
2022/10/07 02:24:11;;;;;;;;;12.00;11.00;;;;;14.26;77.35;100971.16;4640687;28;2798191;-68
2022/10/07 02:26:42;;;;;;;;;11.40;10.80;;;;;14.27;77.41;100964.19;4634612;28;2788116;-68
2022/10/07 02:29:11;;;;;;;;;11.00;10.00;;;;;14.26;77.24;100965.91;4618032;28;2781526;-67
2022/10/07 02:31:41;;;;;;;;;11.33;11.00;;;;;14.25;78.13;100977.28;4634693;28;2792451;-68
2022/10/07 02:34:10;;;;;;;;;8.33;8.33;;;;;14.14;77.72;100960.38;4634869;28;2752317;-67
2022/10/07 02:36:44;;;;;;;;;11.60;10.40;;;;;14.22;78.04;100973.69;4653729;28;2787166;-72
2022/10/07 02:39:12;;;;;;;;;11.80;9.60;;;;;14.13;78.21;100958.63;4634419;28;2789818;-71
2022/10/07 02:42:07;;;;;;;;;12.00;11.00;;;;;14.21;79.06;100977.19;4612190;28;3537774;-71
2022/10/07 02:44:39;;;;;;;;;12.50;11.00;;;;;14.17;78.79;100965.72;4640535;28;2802739;-71
2022/10/07 02:47:30;;;;;;;;;14.33;12.00;;;;;14.10;79.06;100964.69;4612436;28;3513835;-72
2022/10/07 02:50:00;;;;;;;;;11.33;11.00;;;;;14.09;79.14;100956.78;4634818;28;2788236;-72
2022/10/07 02:52:30;;;;;;;;;11.00;10.00;;;;;14.06;78.52;100948.81;4655884;28;2786710;-72
2022/10/07 02:55:08;;;;;;;;;10.00;9.33;;;;;14.08;78.82;100961.13;4611680;28;2783601;-71
2022/10/07 02:57:43;;;;;;;;;10.00;10.00;;;;;14.02;78.69;100957.50;4635301;28;2786762;-70
2022/10/07 03:00:11;;;;;;;;;12.00;10.50;;;;;13.94;78.91;100946.81;4640726;28;2781518;-71
2022/10/07 03:02:45;;;;;;;;;12.00;10.67;;;;;13.93;78.80;100932.78;4611962;28;3510723;-69
2022/10/07 03:05:13;;;;;;;;;11.00;10.00;;;;;14.02;78.64;100946.97;4641325;28;2788854;-72
2022/10/07 03:07:41;;;;;;;;;10.00;10.00;;;;;13.99;79.05;100945.19;4634110;28;2796072;-71
2022/10/07 03:10:09;;;;;;;;;10.20;9.40;;;;;14.00;78.65;100946.94;4654489;28;2781491;-71
2022/10/07 03:12:35;;;;;;;;;12.67;11.33;;;;;14.02;78.49;100947.84;4617701;28;2787830;-71
2022/10/07 03:15:02;;;;;;;;;10.00;9.67;;;;;13.92;78.59;100935.38;4635772;28;2769104;-71
2022/10/07 03:17:28;;;;;;;;;11.00;10.00;;;;;13.93;78.54;100945.94;4635008;28;2787775;-72
2022/10/07 03:19:55;;;;;;;;;12.00;11.00;;;;;13.80;78.21;100917.59;4634701;28;2787913;-72
2022/10/07 03:22:22;;;;;;;;;10.40;10.40;;;;;13.95;78.43;100938.09;4656459;28;2785693;-72
2022/10/07 03:24:50;;;;;;;;;9.80;9.00;;;;;13.90;78.22;100934.47;4642547;28;2767952;-68
2022/10/07 03:27:17;;;;;;;;;12.80;11.60;;;;;13.91;78.94;100938.88;4627904;28;3525272;-68
2022/10/07 03:29:44;;;;;;;;;9.20;9.20;;;;;13.98;78.82;100945.13;4642376;28;2771134;-71
2022/10/07 03:32:10;;;;;;;;;12.50;10.50;;;;;13.80;77.98;100914.09;4624702;28;2791946;-72
2022/10/07 03:34:37;;;;;;;;;11.33;10.67;;;;;13.94;78.25;100936.31;4620266;28;2793066;-71
2022/10/07 03:37:04;;;;;;;;;13.33;11.00;;;;;13.89;77.96;100932.69;4632967;28;3523173;-72
2022/10/07 03:39:32;;;;;;;;;12.71;12.14;;;;;13.80;78.84;100916.72;4663850;28;2801405;-70
2022/10/07 03:41:59;;;;;;;;;14.00;14.00;;;;;13.90;79.33;100939.72;4639112;28;2801265;-71
2022/10/07 03:44:27;;;;;;;;;14.50;11.83;;;;;13.86;79.60;100930.88;4655589;28;2810818;-71
2022/10/07 03:46:54;;;;;;;;;10.67;9.67;;;;;13.80;79.99;100919.34;4631712;28;2772165;-72
2022/10/07 03:49:21;;;;;;;;;10.80;10.80;;;;;13.87;79.91;100932.66;4652586;28;3510699;-72
2022/10/07 03:51:47;;;;;;;;;14.00;13.40;;;;;13.88;80.18;100925.66;4629252;28;3476246;-67
2022/10/07 03:54:14;;;;;;;;;11.40;10.60;;;;;13.84;79.86;100923.81;4653123;28;3511665;-71
2022/10/07 03:56:41;;;;;;;;;13.67;11.33;;;;;13.83;79.87;100917.69;4617311;28;3522133;-68
2022/10/07 03:59:08;;;;;;;;;15.67;12.67;;;;;13.86;80.24;100928.25;4646181;28;3533607;-68
2022/10/07 04:01:36;;;;;;;;;12.67;12.00;;;;;13.83;80.02;100920.31;4645931;28;3513772;-68
2022/10/07 04:04:02;;;;;;;;;11.00;11.00;;;;;13.93;80.01;100931.91;4634987;28;3508611;-68
2022/10/07 04:06:28;;;;;;;;;10.00;9.00;;;;;13.87;79.26;100924.78;4638224;28;2764180;-71
2022/10/07 04:08:56;;;;;;;;;10.80;10.00;;;;;13.85;79.45;100918.59;4636753;28;2786738;-71
2022/10/07 04:11:23;;;;;;;;;10.33;10.33;;;;;13.92;79.30;100924.88;4620350;28;2778509;-71
2022/10/07 04:13:50;;;;;;;;;13.33;12.33;;;;;13.85;79.13;100918.59;4634221;28;3539810;-71
2022/10/07 04:16:18;;;;;;;;;11.00;11.00;;;;;13.92;79.13;100930.13;4640704;28;2785680;-71
2022/10/07 04:18:44;;;;;;;;;18.50;18.50;;;;;13.83;79.15;100909.81;4632216;28;2477336;-72
2022/10/07 04:21:11;;;;;;;;;13.33;13.00;;;;;13.87;78.95;100921.28;4616493;28;2802371;-72
2022/10/07 04:23:40;;;;;;;;;10.00;9.00;;;;;13.91;78.84;100920.50;4633804;28;2761059;-68
2022/10/07 04:26:09;;;;;;;;;15.00;12.00;;;;;13.78;79.11;100902.69;4637526;28;3511752;-71
2022/10/07 04:28:37;;;;;;;;;8.00;8.00;;;;;13.82;79.00;100920.28;4659858;28;2743992;-71
2022/10/07 04:31:07;;;;;;;;;11.40;10.40;;;;;13.85;79.02;100926.50;4632682;28;2789831;-72
2022/10/07 04:33:38;;;;;;;;;9.67;9.67;;;;;13.83;79.10;100925.56;4614090;28;2762741;-71
2022/10/07 04:36:08;;;;;;;;;11.00;10.00;;;;;13.82;80.04;100918.53;4642007;28;2789870;-72
2022/10/07 04:38:34;;;;;;;;;13.33;11.33;;;;;13.77;79.71;100916.63;4614881;28;3537745;-72
2022/10/07 04:41:05;;;;;;;;;11.00;9.00;;;;;13.83;79.41;100914.19;4640812;28;2640969;-71
2022/10/07 04:43:32;;;;;;;;;10.00;9.00;;;;;13.75;79.04;100907.84;4644356;28;2767993;-72
2022/10/07 04:46:04;;;;;;;;;12.00;10.33;;;;;13.78;79.49;100905.31;4612120;28;2787916;-72
2022/10/07 04:48:31;;;;;;;;;11.00;10.00;;;;;13.82;79.36;100922.91;4636907;28;2788841;-72
2022/10/07 04:51:07;;;;;;;;;9.00;8.40;;;;;13.82;78.72;100930.78;4659476;28;2746134;-72
2022/10/07 04:53:37;;;;;;;;;10.80;10.00;;;;;13.81;79.30;100923.75;4634298;28;2787772;-71
2022/10/07 04:56:07;;;;;;;;;12.83;10.83;;;;;13.67;79.44;100905.94;4630129;28;2800284;-71
2022/10/07 04:58:33;;;;;;;;;10.33;10.00;;;;;13.58;79.97;100908.34;4637357;28;2787906;-71
2022/10/07 05:01:00;;;;;;;;;13.00;12.00;;;;;13.62;80.03;100915.44;4636906;28;2787807;-71
2022/10/07 05:03:28;;;;;;;;;9.00;8.00;;;;;13.61;79.89;100908.44;4614670;28;2750300;-71
2022/10/07 05:06:04;;;;;;;;;10.00;9.40;;;;;13.56;79.57;100902.19;4658316;28;2784610;-72
2022/10/07 05:08:32;;;;;;;;;10.80;9.40;;;;;13.50;79.32;100895.03;4635360;28;2784651;-70
2022/10/07 05:11:01;;;;;;;;;12.00;11.00;;;;;13.62;79.69;100914.56;4632662;28;2808576;-71
2022/10/07 05:13:28;;;;;;;;;14.33;12.00;;;;;13.60;79.70;100903.13;4640116;28;2798175;-71
2022/10/07 05:15:59;;;;;;;;;16.83;14.67;;;;;13.51;79.31;100886.31;4655210;28;3548153;-72
2022/10/07 05:18:27;;;;;;;;;12.00;11.00;;;;;13.63;80.12;100897.97;4612120;28;2789941;-72
2022/10/07 05:20:55;;;;;;;;;8.00;7.80;;;;;13.62;79.94;100910.19;4655327;28;2749600;-71
2022/10/07 05:23:25;;;;;;;;;12.20;10.00;;;;;13.59;80.03;100907.50;4634625;28;2788785;-71
2022/10/07 05:26:00;;;;;;;;;11.00;11.00;;;;;13.53;79.87;100892.50;4632224;28;2789862;-71
2022/10/07 05:28:27;;;;;;;;;11.50;11.00;;;;;13.47;80.52;100879.25;4617506;28;2793396;-71
2022/10/07 05:31:08;;;;;;;;;9.00;9.00;;;;;13.58;80.81;100899.59;4622447;28;2754452;-71
2022/10/07 05:33:35;;;;;;;;;11.00;10.00;;;;;13.52;81.56;100893.34;4611720;28;3519334;-72
2022/10/07 05:36:04;;;;;;;;;10.20;9.80;;;;;13.43;80.96;100884.34;4656378;28;2780542;-71
2022/10/07 05:38:32;;;;;;;;;11.33;10.33;;;;;13.56;80.81;100898.66;4612654;28;3515836;-71
2022/10/07 05:41:03;;;;;;;;;12.33;11.67;;;;;13.53;80.40;100894.25;4655860;28;2800286;-71
2022/10/07 05:43:32;;;;;;;;;12.00;11.00;;;;;13.49;80.43;100884.53;4636278;28;3531511;-71
2022/10/07 05:46:06;;;;;;;;;12.17;11.17;;;;;13.35;80.38;100857.06;4656090;28;2804448;-71
2022/10/07 05:48:33;;;;;;;;;9.50;9.50;;;;;13.55;79.97;100891.63;4641868;28;2771106;-71
2022/10/07 05:51:00;;;;;;;;;11.20;10.40;;;;;13.50;79.26;100891.53;4633453;28;2786690;-72
2022/10/07 05:53:29;;;;;;;;;11.00;9.67;;;;;13.49;79.40;100892.41;4622678;28;2783728;-71
2022/10/07 05:55:55;;;;;;;;;13.67;10.67;;;;;13.50;79.65;100895.03;4635167;28;3513796;-72
2022/10/07 05:58:23;;;;;;;;;8.20;7.20;;;;;13.42;79.61;100883.47;4668333;28;2734672;-72
2022/10/07 06:00:52;;;;;;;;;12.80;11.80;;;;;13.52;79.76;100898.59;4654281;28;3535663;-72
2022/10/07 06:03:20;;;;;;;;;11.33;11.00;;;;;13.40;79.85;100879.94;4614323;28;2786733;-71
2022/10/07 06:05:49;;;;;;;;;13.00;10.67;;;;;13.43;79.93;100873.84;4636381;28;2784659;-71
2022/10/07 06:08:18;;;;;;;;;12.00;11.00;;;;;13.45;81.29;100886.19;4652935;28;2779454;-72
2022/10/07 06:13:33;;;;;;;;;10.50;10.50;;;;;13.51;80.85;100885.44;4640223;28;2789870;-72
2022/10/07 06:16:08;;;;;;;;;10.00;10.00;;;;;13.31;80.56;100856.13;4618791;28;2787838;-71
2022/10/07 06:18:38;;;;;;;;;13.00;11.33;;;;;13.42;80.55;100869.47;4613745;28;2799372;-71
2022/10/07 06:21:04;;;;;;;;;10.00;9.00;;;;;13.61;80.57;100892.69;4634600;28;2773195;-71
2022/10/07 06:23:30;;;;;;;;;10.00;10.00;;;;;13.66;79.75;100883.16;4613795;28;2784674;-72
2022/10/07 06:25:58;;;;;;;;;17.33;14.67;;;;;13.76;79.89;100875.50;4611211;28;3539830;-71
2022/10/07 06:28:25;;;;;;;;;14.67;12.00;;;;;13.83;79.40;100883.56;4633287;28;3532576;-72
2022/10/07 06:30:51;;;;;;;;;14.33;12.00;;;;;13.92;79.08;100875.84;4635247;28;2807709;-71
2022/10/07 06:33:18;;;;;;;;;11.00;10.00;;;;;13.99;78.47;100876.88;4634761;28;3510687;-72
2022/10/07 06:35:45;;;;;;;;;15.33;13.00;;;;;14.01;78.23;100874.31;4636177;28;2789988;-68
2022/10/07 06:38:12;;;;;;;;;13.33;12.00;;;;;14.01;77.88;100861.16;4636018;28;3529424;-71
2022/10/07 06:40:38;;;;;;;;;11.00;10.80;;;;;14.17;77.92;100873.75;4648347;28;3516901;-71
2022/10/07 06:43:05;;;;;;;;;11.00;11.00;;;;;14.03;77.37;100823.56;4619472;28;3523158;-72
2022/10/07 06:45:32;;;;;;;;;11.50;10.00;;;;;14.43;76.98;100870.78;4639661;28;2779451;-71
2022/10/07 06:48:00;;;;;;;;;10.80;9.00;;;;;14.45;76.93;100854.16;4633827;28;2775307;-71
2022/10/07 06:50:28;;;;;;;;;11.17;10.00;;;;;14.57;76.64;100857.91;4630209;28;2807633;-67
2022/10/07 06:52:55;;;;;;;;;13.33;12.00;;;;;14.68;76.21;100865.16;4639888;28;2795079;-68
2022/10/07 06:55:23;;;;;;;;;11.00;11.00;;;;;14.82;76.15;100872.38;4652778;28;2787763;-67
2022/10/07 06:57:49;;;;;;;;;10.00;10.00;;;;;14.91;75.67;100862.03;4618071;28;2792984;-68
2022/10/07 07:00:16;;;;;;;;;22.33;21.33;;;;;14.95;75.10;100865.59;4631869;28;2842428;-68
2022/10/07 07:02:43;;;;;;;;;17.00;16.50;;;;;15.05;75.47;100855.25;4634000;28;2481481;-69
2022/10/07 07:05:13;;;;;;;;;15.00;13.00;;;;;15.26;74.92;100864.34;4609265;28;3516956;-67
2022/10/07 07:07:38;;;;;;;;;17.00;15.00;;;;;15.38;74.51;100867.19;4609652;28;2487761;-70
2022/10/07 07:10:06;;;;;;;;;12.80;11.80;;;;;15.47;74.08;100854.16;4627046;28;3517948;-71
2022/10/07 07:12:32;;;;;;;;;16.00;15.33;;;;;15.71;73.46;100876.44;4607407;28;3548169;-71
2022/10/07 07:15:00;;;;;;;;;13.00;12.00;;;;;15.77;73.16;100852.84;4613575;28;3517971;-72
2022/10/07 07:17:26;;;;;;;;;11.00;10.67;;;;;15.98;72.77;100854.91;4633708;28;3513827;-71
2022/10/07 07:19:52;;;;;;;;;13.00;12.00;;;;;16.07;72.05;100849.72;4644400;28;2483577;-70
2022/10/07 07:22:19;;;;;;;;;14.00;13.00;;;;;16.29;72.34;100856.16;4619034;28;3537759;-71
2022/10/07 07:24:46;;;;;;;;;15.40;11.80;;;;;16.51;71.56;100869.56;4650587;28;3523112;-70
2022/10/07 07:27:13;;;;;;;;;12.67;12.33;;;;;16.67;71.70;100857.41;4620575;28;3513827;-71
2022/10/07 07:29:40;;;;;;;;;14.00;12.00;;;;;16.89;71.11;100850.63;4635639;28;2797182;-72
2022/10/07 07:32:07;;;;;;;;;11.00;10.00;;;;;17.43;70.34;100853.72;4601320;28;3519000;-72
2022/10/07 07:34:35;;;;;;;;;11.67;10.67;;;;;19.03;68.24;100846.38;4602895;28;2796198;-68
2022/10/07 07:37:00;;;;;;;;;9.50;9.50;;;;;21.05;63.22;100841.19;4630556;28;2769072;-68
2022/10/07 07:39:26;;;;;;;;;9.50;9.50;;;;;22.60;58.20;100834.09;4589884;28;2769027;-69
2022/10/07 07:41:53;;;;;;;;;12.00;9.67;;;;;23.84;53.79;100838.19;4611704;28;3503412;-71
2022/10/07 07:44:19;;;;;;;;;10.50;9.00;;;;;24.89;52.14;100833.19;4627861;28;2774306;-69
2022/10/07 07:46:50;;;;;;;;;9.60;9.60;;;;;25.89;50.14;100846.63;4612156;28;3473156;-72
2022/10/07 07:49:18;;;;;;;;;8.00;7.67;;;;;26.42;47.03;100846.84;4604343;28;2739960;-70
2022/10/07 07:51:45;;;;;;;;;10.00;9.00;;;;;27.01;45.38;100837.84;4620256;28;3496470;-68
2022/10/07 07:54:14;;;;;;;;;8.20;8.20;;;;;27.84;43.79;100852.84;4629633;28;2754435;-67
2022/10/07 07:56:41;;;;;;;;;9.33;9.00;;;;;28.43;42.53;100840.78;4584542;28;3474265;-68
2022/10/07 07:59:07;;;;;;;;;9.67;8.00;;;;;28.98;41.22;100846.63;4621311;28;2759739;-67
2022/10/07 08:01:34;;;;;;;;;9.67;9.33;;;;;29.42;40.15;100860.00;4629237;28;3488821;-68
2022/10/07 08:04:04;;;;;;;;;12.33;10.00;;;;;29.81;40.75;100853.84;4631706;28;3502704;-67
2022/10/07 08:06:31;;;;;;;;;9.33;8.00;;;;;30.01;38.78;100823.28;4628600;28;2750318;-68
2022/10/07 08:08:58;;;;;;;;;11.00;10.00;;;;;30.47;40.21;100837.28;4619067;28;2790260;-70
2022/10/07 08:11:24;;;;;;;;;8.00;6.50;;;;;31.29;37.50;100839.50;4626872;28;2738890;-68
2022/10/07 08:13:52;;;;;;;;;10.00;8.00;;;;;31.55;37.38;100847.22;4615025;28;2780572;-70
2022/10/07 08:16:21;;;;;;;;;8.67;8.67;;;;;31.51;37.01;100833.91;4634294;28;2748412;-70
2022/10/07 08:18:49;;;;;;;;;8.00;8.00;;;;;31.48;38.00;100844.84;4641578;28;2747152;-73
2022/10/07 08:21:19;;;;;;;;;9.00;8.00;;;;;31.51;38.02;100841.09;4641850;28;2755513;-72
2022/10/07 08:23:46;;;;;;;;;10.00;9.67;;;;;31.99;37.96;100843.94;4612754;28;3484626;-73
2022/10/07 08:26:13;;;;;;;;;8.00;8.00;;;;;32.44;36.64;100836.97;4636457;28;2735723;-73
2022/10/07 08:28:42;;;;;;;;;11.00;10.00;;;;;32.73;36.80;100843.44;4655149;28;2784607;-73
2022/10/07 08:31:14;;;;;;;;;10.00;9.00;;;;;33.09;36.56;100853.97;4631668;28;2769061;-69
2022/10/07 08:33:43;;;;;;;;;6.20;6.00;;;;;33.45;36.81;100847.28;4655686;28;2741911;-69
2022/10/07 08:36:30;;;;;;;;;7.00;7.00;;;;;33.68;36.41;100850.44;4624049;28;2737741;-69
2022/10/07 08:38:59;;;;;;;;;8.40;8.40;;;;;33.48;35.98;100844.41;4635080;28;2746114;-70
2022/10/07 08:41:50;;;;;;;;;8.00;7.00;;;;;33.15;36.05;100851.81;4611299;28;2739818;-70
2022/10/07 08:44:23;;;;;;;;;9.67;8.00;;;;;32.78;37.64;100848.56;4641120;28;2770064;-70
2022/10/07 08:47:02;;;;;;;;;8.00;6.00;;;;;32.73;38.14;100846.16;4618552;28;2735738;-72
2022/10/07 08:49:40;;;;;;;;;8.40;7.40;;;;;32.56;38.74;100843.53;4637674;28;2741917;-71
2022/10/07 08:52:24;;;;;;;;;5.80;5.80;;;;;32.35;39.20;100843.78;4614765;28;2740878;-72
2022/10/07 08:54:52;;;;;;;;;5.80;5.00;;;;;32.32;38.40;100827.72;4615071;28;2736724;-73
2022/10/07 08:57:43;;;;;;;;;7.00;7.00;;;;;32.44;37.19;100828.84;4612076;28;2744101;-70
2022/10/07 09:00:16;;;;;;;;;4.00;3.40;;;;;32.13;33.43;100824.31;4656067;28;2734621;-72
2022/10/07 09:03:13;;;;;;;;;4.20;4.20;;;;;31.73;38.80;100838.13;4632977;28;2748162;-70
2022/10/07 09:05:46;;;;;;;;;4.00;3.80;;;;;31.67;39.25;100839.31;4632552;28;2729856;-70
2022/10/07 09:08:23;;;;;;;;;7.60;7.20;;;;;31.61;39.94;100838.78;4613592;28;2731526;-70
2022/10/07 09:10:52;;;;;;;;;6.40;5.00;;;;;31.48;39.67;100834.06;4633568;28;2742946;-70
2022/10/07 09:13:23;;;;;;;;;6.20;5.00;;;;;31.48;41.19;100828.66;4634842;28;2736760;-71
2022/10/07 09:15:56;;;;;;;;;7.00;6.20;;;;;31.41;41.50;100842.53;4617521;28;2737774;-71
2022/10/07 09:18:40;;;;;;;;;6.00;6.00;;;;;31.30;41.08;100835.00;4635803;28;2736723;-73
2022/10/07 09:21:16;;;;;;;;;4.20;4.20;;;;;31.16;41.06;100824.91;4636474;28;2737742;-73
2022/10/07 09:23:45;;;;;;;;;4.00;4.00;;;;;31.18;40.63;100822.09;4618219;28;2744357;-73
2022/10/07 09:26:15;;;;;;;;;5.20;5.00;;;;;31.09;41.41;100826.16;4632635;28;2731539;-74
2022/10/07 09:28:43;;;;;;;;;5.60;4.40;;;;;31.16;39.86;100807.81;4658393;28;2740871;-73
2022/10/07 09:31:13;;;;;;;;;5.40;4.60;;;;;31.16;40.51;100818.63;4645011;28;2740878;-73
2022/10/07 09:33:44;;;;;;;;;5.00;4.00;;;;;31.17;40.02;100823.09;4613464;28;2751362;-70
2022/10/07 09:36:17;;;;;;;;;5.80;4.40;;;;;31.05;39.85;100809.25;4617134;28;2741924;-72
2022/10/07 09:38:48;;;;;;;;;6.40;5.00;;;;;31.01;40.55;100817.59;4635440;28;2730453;-70
2022/10/07 09:41:16;;;;;;;;;7.00;6.33;;;;;31.16;40.80;100832.13;4636054;28;2746071;-73
2022/10/07 09:44:01;;;;;;;;;6.00;4.80;;;;;31.28;40.34;100826.97;4654637;28;2732574;-71
2022/10/07 09:46:52;;;;;;;;;3.80;3.00;;;;;31.36;39.53;100825.72;4635127;28;2742307;-72
2022/10/07 09:49:34;;;;;;;;;5.80;5.00;;;;;31.36;38.88;100804.97;4616599;28;2748175;-73
2022/10/07 09:52:16;;;;;;;;;4.40;4.00;;;;;31.48;39.77;100825.94;4635283;28;2741913;-73
2022/10/07 09:54:46;;;;;;;;;4.00;4.00;;;;;31.37;38.89;100809.41;4635040;28;2737050;-73
2022/10/07 09:57:32;;;;;;;;;5.00;4.40;;;;;31.50;39.01;100812.38;4630994;28;2731548;-73
2022/10/07 10:00:12;;;;;;;;;4.00;4.00;;;;;31.48;38.76;100817.00;4635180;28;2736723;-73
2022/10/07 10:02:45;;;;;;;;;5.80;5.00;;;;;31.67;38.24;100816.84;4658754;28;2736736;-73
2022/10/07 10:05:24;;;;;;;;;4.20;4.20;;;;;31.89;38.04;100811.16;4658219;28;2739851;-73
2022/10/07 10:07:54;;;;;;;;;7.00;6.00;;;;;31.95;37.01;100800.00;4635547;28;2733560;-73
2022/10/07 10:10:30;;;;;;;;;6.40;5.40;;;;;31.77;36.32;100795.63;4654549;28;2725338;-73
2022/10/07 10:13:00;;;;;;;;;4.80;4.80;;;;;31.80;36.55;100796.34;4657695;28;2744031;-73
2022/10/07 10:15:39;;;;;;;;;6.40;5.20;;;;;31.71;36.01;100802.22;4631064;28;2737804;-73
2022/10/07 10:18:29;;;;;;;;;6.00;5.33;;;;;31.73;36.44;100812.97;4614995;28;2734688;-70
2022/10/07 10:21:28;;;;;;;;;5.00;5.00;;;;;31.80;37.25;100811.69;4657922;28;2729457;-70
2022/10/07 10:23:59;;;;;;;;;6.00;6.00;;;;;31.89;36.50;100795.84;4610742;28;2737773;-70
2022/10/07 10:26:43;;;;;;;;;5.60;5.60;;;;;32.05;36.57;100805.81;4631066;28;2745105;-70
2022/10/07 10:29:47;;;;;;;;;7.20;6.80;;;;;31.79;35.86;100804.50;4616649;28;2739844;-70
2022/10/07 10:32:30;;;;;;;;;4.00;4.00;;;;;31.91;35.69;100802.03;4634330;28;2733598;-70
2022/10/07 10:35:08;;;;;;;;;5.40;5.00;;;;;31.85;35.47;100813.19;4657735;28;2733627;-70
2022/10/07 10:37:59;;;;;;;;;8.33;8.00;;;;;31.68;36.54;100807.81;4613953;28;2746487;-70
2022/10/07 10:40:53;;;;;;;;;8.40;8.40;;;;;31.45;36.54;100806.34;4639166;28;2750266;-70
2022/10/07 10:43:23;;;;;;;;;5.80;5.80;;;;;31.29;36.89;100809.81;4635464;28;2736704;-70
2022/10/07 10:46:16;;;;;;;;;6.60;6.00;;;;;31.25;36.54;100810.06;4630499;28;2734696;-70
2022/10/07 10:48:51;;;;;;;;;5.20;4.80;;;;;31.20;37.34;100804.91;4638951;28;2739809;-73
2022/10/07 10:51:22;;;;;;;;;5.20;4.80;;;;;31.17;37.51;100791.56;4634395;28;2722122;-73
2022/10/07 10:54:04;;;;;;;;;5.20;5.00;;;;;31.13;38.65;100796.25;4636079;28;2730525;-72
2022/10/07 10:57:22;;;;;;;;;5.60;5.20;;;;;31.09;39.21;100799.19;4656939;28;2730482;-73
2022/10/07 11:00:11;;;;;;;;;7.80;6.60;;;;;30.99;39.16;100793.38;4607058;28;2735687;-74
2022/10/07 11:02:38;;;;;;;;;6.00;5.33;;;;;30.93;40.19;100797.28;4614075;28;2735718;-73
2022/10/07 11:05:30;;;;;;;;;7.80;6.80;;;;;30.62;40.37;100795.25;4639185;28;2740188;-73
2022/10/07 11:08:09;;;;;;;;;6.20;5.40;;;;;30.44;39.94;100788.94;4634645;28;2726320;-72
2022/10/07 11:10:48;;;;;;;;;7.00;7.00;;;;;30.30;40.46;100789.63;4634417;28;2734616;-73
2022/10/07 11:13:56;;;;;;;;;6.33;6.00;;;;;29.86;39.81;100716.28;4614684;28;2735024;-73
2022/10/07 11:16:47;;;;;;;;;6.20;5.20;;;;;30.20;39.55;100780.19;4656868;28;2730521;-72
2022/10/07 11:19:35;;;;;;;;;6.00;6.00;;;;;30.10;40.53;100786.94;4634449;28;2735655;-69
2022/10/07 11:22:09;;;;;;;;;6.80;6.00;;;;;29.55;41.98;100774.22;4633606;28;2723160;-73
2022/10/07 11:24:45;;;;;;;;;6.00;5.20;;;;;29.34;42.00;100768.84;4638436;28;2732569;-70
2022/10/07 11:27:28;;;;;;;;;8.00;7.00;;;;;29.30;42.22;100774.44;4614046;28;2739200;-69